sensor_id;sensor_type;location;lat;lon;timestamp;temperature;humidity
1413;DHT22;701;52.526;13.408;2022-11-15T00:00:11;6.90;53.30
1413;DHT22;701;52.526;13.408;2022-11-15T00:02:55;6.90;53.40
1413;DHT22;701;52.526;13.408;2022-11-15T00:05:39;6.80;53.30
1413;DHT22;701;52.526;13.408;2022-11-15T00:08:23;6.80;53.50
1413;DHT22;701;52.526;13.408;2022-11-15T00:11:10;6.80;53.50
1413;DHT22;701;52.526;13.408;2022-11-15T00:13:55;6.90;53.80
1413;DHT22;701;52.526;13.408;2022-11-15T00:16:40;6.80;53.70
1413;DHT22;701;52.526;13.408;2022-11-15T00:19:24;6.80;53.40
1413;DHT22;701;52.526;13.408;2022-11-15T00:22:08;6.80;53.70
1413;DHT22;701;52.526;13.408;2022-11-15T00:24:52;6.80;53.50
1413;DHT22;701;52.526;13.408;2022-11-15T00:27:36;6.80;53.60
1413;DHT22;701;52.526;13.408;2022-11-15T00:30:20;6.80;53.30
1413;DHT22;701;52.526;13.408;2022-11-15T00:33:06;6.70;53.30
1413;DHT22;701;52.526;13.408;2022-11-15T00:35:50;6.80;53.40
1413;DHT22;701;52.526;13.408;2022-11-15T00:38:36;6.70;53.30
1413;DHT22;701;52.526;13.408;2022-11-15T00:41:21;6.70;53.70
1413;DHT22;701;52.526;13.408;2022-11-15T00:44:05;6.70;53.60
1413;DHT22;701;52.526;13.408;2022-11-15T00:46:50;6.70;53.80
1413;DHT22;701;52.526;13.408;2022-11-15T00:49:34;6.70;54.20
1413;DHT22;701;52.526;13.408;2022-11-15T00:52:18;6.60;54.00
1413;DHT22;701;52.526;13.408;2022-11-15T00:55:02;6.60;53.90
1413;DHT22;701;52.526;13.408;2022-11-15T00:57:46;6.60;54.40
1413;DHT22;701;52.526;13.408;2022-11-15T01:00:31;6.60;54.40
1413;DHT22;701;52.526;13.408;2022-11-15T01:03:15;6.60;54.70
1413;DHT22;701;52.526;13.408;2022-11-15T01:06:00;6.60;55.00
1413;DHT22;701;52.526;13.408;2022-11-15T01:08:44;6.50;54.70
1413;DHT22;701;52.526;13.408;2022-11-15T01:11:30;6.50;54.80
1413;DHT22;701;52.526;13.408;2022-11-15T01:14:14;6.50;55.00
1413;DHT22;701;52.526;13.408;2022-11-15T01:16:58;6.50;55.00
1413;DHT22;701;52.526;13.408;2022-11-15T01:19:42;6.50;54.90
1413;DHT22;701;52.526;13.408;2022-11-15T01:22:27;6.50;54.70
1413;DHT22;701;52.526;13.408;2022-11-15T01:25:11;6.50;55.00
1413;DHT22;701;52.526;13.408;2022-11-15T01:27:57;6.50;54.70
1413;DHT22;701;52.526;13.408;2022-11-15T01:30:42;6.50;55.00
1413;DHT22;701;52.526;13.408;2022-11-15T01:33:27;6.50;55.00
1413;DHT22;701;52.526;13.408;2022-11-15T01:36:14;6.50;55.00
1413;DHT22;701;52.526;13.408;2022-11-15T01:38:59;6.40;54.90
1413;DHT22;701;52.526;13.408;2022-11-15T01:41:44;6.40;54.90
1413;DHT22;701;52.526;13.408;2022-11-15T01:47:25;6.40;54.90
1413;DHT22;701;52.526;13.408;2022-11-15T01:50:16;6.40;55.00
1413;DHT22;701;52.526;13.408;2022-11-15T01:53:01;6.40;54.90
1413;DHT22;701;52.526;13.408;2022-11-15T01:55:45;6.40;54.90
1413;DHT22;701;52.526;13.408;2022-11-15T01:58:30;6.40;54.90
1413;DHT22;701;52.526;13.408;2022-11-15T02:01:15;6.40;54.90
1413;DHT22;701;52.526;13.408;2022-11-15T02:04:24;6.40;55.00
1413;DHT22;701;52.526;13.408;2022-11-15T02:07:11;6.40;54.90
1413;DHT22;701;52.526;13.408;2022-11-15T02:10:02;6.30;54.90
1413;DHT22;701;52.526;13.408;2022-11-15T02:12:49;6.30;54.90
1413;DHT22;701;52.526;13.408;2022-11-15T02:15:43;6.30;54.90
1413;DHT22;701;52.526;13.408;2022-11-15T02:18:35;6.30;54.90
1413;DHT22;701;52.526;13.408;2022-11-15T02:31:06;6.30;54.90
1413;DHT22;701;52.526;13.408;2022-11-15T02:43:11;6.30;55.50
1413;DHT22;701;52.526;13.408;2022-11-15T02:46:21;6.30;55.50
1413;DHT22;701;52.526;13.408;2022-11-15T02:49:29;6.30;55.40
1413;DHT22;701;52.526;13.408;2022-11-15T02:52:21;6.40;55.10
1413;DHT22;701;52.526;13.408;2022-11-15T02:55:25;6.30;55.00
1413;DHT22;701;52.526;13.408;2022-11-15T03:07:11;6.40;55.10
1413;DHT22;701;52.526;13.408;2022-11-15T03:10:17;6.40;55.10
1413;DHT22;701;52.526;13.408;2022-11-15T03:22:23;6.50;55.00
1413;DHT22;701;52.526;13.408;2022-11-15T03:25:11;6.50;55.70
1413;DHT22;701;52.526;13.408;2022-11-15T03:27:59;6.50;55.00
1413;DHT22;701;52.526;13.408;2022-11-15T03:30:48;6.50;55.00
1413;DHT22;701;52.526;13.408;2022-11-15T03:33:33;6.50;55.10
1413;DHT22;701;52.526;13.408;2022-11-15T03:36:18;6.50;55.10
1413;DHT22;701;52.526;13.408;2022-11-15T03:39:06;6.50;55.00
1413;DHT22;701;52.526;13.408;2022-11-15T03:45:25;6.50;55.00
1413;DHT22;701;52.526;13.408;2022-11-15T03:48:18;6.50;55.00
1413;DHT22;701;52.526;13.408;2022-11-15T03:51:04;6.60;55.00
1413;DHT22;701;52.526;13.408;2022-11-15T03:53:49;6.50;54.90
1413;DHT22;701;52.526;13.408;2022-11-15T03:56:34;6.60;55.10
1413;DHT22;701;52.526;13.408;2022-11-15T03:59:18;6.60;55.00
1413;DHT22;701;52.526;13.408;2022-11-15T04:02:02;6.60;54.50
1413;DHT22;701;52.526;13.408;2022-11-15T04:04:46;6.60;54.40
1413;DHT22;701;52.526;13.408;2022-11-15T04:07:30;6.60;54.20
1413;DHT22;701;52.526;13.408;2022-11-15T04:10:14;6.60;53.90
1413;DHT22;701;52.526;13.408;2022-11-15T04:12:59;6.60;53.80
1413;DHT22;701;52.526;13.408;2022-11-15T04:15:43;6.60;53.70
1413;DHT22;701;52.526;13.408;2022-11-15T04:18:27;6.70;53.70
1413;DHT22;701;52.526;13.408;2022-11-15T04:21:11;6.70;53.50
1413;DHT22;701;52.526;13.408;2022-11-15T04:24:14;6.60;53.30
1413;DHT22;701;52.526;13.408;2022-11-15T04:26:59;6.60;53.30
1413;DHT22;701;52.526;13.408;2022-11-15T04:29:43;6.60;53.30
1413;DHT22;701;52.526;13.408;2022-11-15T04:32:27;6.60;53.10
1413;DHT22;701;52.526;13.408;2022-11-15T04:35:12;6.60;53.10
1413;DHT22;701;52.526;13.408;2022-11-15T04:37:57;6.60;53.10
1413;DHT22;701;52.526;13.408;2022-11-15T04:40:41;6.60;53.10
1413;DHT22;701;52.526;13.408;2022-11-15T04:43:26;6.60;53.10
1413;DHT22;701;52.526;13.408;2022-11-15T04:46:10;6.50;53.00
1413;DHT22;701;52.526;13.408;2022-11-15T04:48:54;6.50;52.90
1413;DHT22;701;52.526;13.408;2022-11-15T04:51:38;6.50;52.90
1413;DHT22;701;52.526;13.408;2022-11-15T04:54:22;6.50;52.80
1413;DHT22;701;52.526;13.408;2022-11-15T04:57:07;6.50;52.90
1413;DHT22;701;52.526;13.408;2022-11-15T04:59:51;6.50;52.90
1413;DHT22;701;52.526;13.408;2022-11-15T05:02:35;6.50;53.10
1413;DHT22;701;52.526;13.408;2022-11-15T05:05:39;6.50;53.10
1413;DHT22;701;52.526;13.408;2022-11-15T05:08:23;6.50;52.90
1413;DHT22;701;52.526;13.408;2022-11-15T05:11:07;6.50;52.90
1413;DHT22;701;52.526;13.408;2022-11-15T05:13:52;6.50;53.00
1413;DHT22;701;52.526;13.408;2022-11-15T05:16:36;6.50;53.00
1413;DHT22;701;52.526;13.408;2022-11-15T05:19:20;6.50;52.90
1413;DHT22;701;52.526;13.408;2022-11-15T05:22:04;6.50;52.80
1413;DHT22;701;52.526;13.408;2022-11-15T05:24:49;6.60;53.50
1413;DHT22;701;52.526;13.408;2022-11-15T05:27:34;6.50;52.70
1413;DHT22;701;52.526;13.408;2022-11-15T05:30:18;6.50;52.70
1413;DHT22;701;52.526;13.408;2022-11-15T05:33:03;6.50;52.70
1413;DHT22;701;52.526;13.408;2022-11-15T05:35:56;6.50;52.70
1413;DHT22;701;52.526;13.408;2022-11-15T05:38:43;6.50;52.70
1413;DHT22;701;52.526;13.408;2022-11-15T05:41:39;6.50;52.80
1413;DHT22;701;52.526;13.408;2022-11-15T05:44:24;6.50;52.70
1413;DHT22;701;52.526;13.408;2022-11-15T05:47:19;6.50;52.70
1413;DHT22;701;52.526;13.408;2022-11-15T05:50:06;6.50;52.60
1413;DHT22;701;52.526;13.408;2022-11-15T05:52:51;6.50;52.60
1413;DHT22;701;52.526;13.408;2022-11-15T05:55:38;6.50;52.40
1413;DHT22;701;52.526;13.408;2022-11-15T05:58:23;6.50;52.50
1413;DHT22;701;52.526;13.408;2022-11-15T06:01:07;6.50;52.40
1413;DHT22;701;52.526;13.408;2022-11-15T06:03:52;6.50;52.40
1413;DHT22;701;52.526;13.408;2022-11-15T06:06:36;6.50;52.40
1413;DHT22;701;52.526;13.408;2022-11-15T06:09:20;6.50;52.30
1413;DHT22;701;52.526;13.408;2022-11-15T06:12:04;6.50;52.30
1413;DHT22;701;52.526;13.408;2022-11-15T06:14:49;6.50;52.40
1413;DHT22;701;52.526;13.408;2022-11-15T06:17:33;6.50;52.30
1413;DHT22;701;52.526;13.408;2022-11-15T06:20:17;6.50;52.30
1413;DHT22;701;52.526;13.408;2022-11-15T06:23:03;6.50;52.40
1413;DHT22;701;52.526;13.408;2022-11-15T06:25:48;6.50;52.30
1413;DHT22;701;52.526;13.408;2022-11-15T06:28:33;6.50;52.20
1413;DHT22;701;52.526;13.408;2022-11-15T06:31:18;6.50;52.10
1413;DHT22;701;52.526;13.408;2022-11-15T06:34:02;6.50;52.00
1413;DHT22;701;52.526;13.408;2022-11-15T06:36:46;6.50;51.90
1413;DHT22;701;52.526;13.408;2022-11-15T06:39:30;6.50;51.90
1413;DHT22;701;52.526;13.408;2022-11-15T06:42:15;6.50;51.80
1413;DHT22;701;52.526;13.408;2022-11-15T06:44:59;6.50;51.70
1413;DHT22;701;52.526;13.408;2022-11-15T06:47:47;6.50;51.70
1413;DHT22;701;52.526;13.408;2022-11-15T06:50:31;6.60;51.80
1413;DHT22;701;52.526;13.408;2022-11-15T06:53:15;6.60;51.80
1413;DHT22;701;52.526;13.408;2022-11-15T06:56:01;6.60;51.80
1413;DHT22;701;52.526;13.408;2022-11-15T06:58:45;6.60;51.70
1413;DHT22;701;52.526;13.408;2022-11-15T07:01:29;6.60;51.60
1413;DHT22;701;52.526;13.408;2022-11-15T07:04:13;6.70;51.70
1413;DHT22;701;52.526;13.408;2022-11-15T07:06:57;6.70;51.70
1413;DHT22;701;52.526;13.408;2022-11-15T07:09:41;6.70;51.60
1413;DHT22;701;52.526;13.408;2022-11-15T07:12:26;6.80;51.50
1413;DHT22;701;52.526;13.408;2022-11-15T07:15:10;6.80;51.40
1413;DHT22;701;52.526;13.408;2022-11-15T07:17:55;6.90;51.20
1413;DHT22;701;52.526;13.408;2022-11-15T07:20:39;6.90;51.20
1413;DHT22;701;52.526;13.408;2022-11-15T07:23:23;7.00;51.30
1413;DHT22;701;52.526;13.408;2022-11-15T07:26:08;7.00;51.20
1413;DHT22;701;52.526;13.408;2022-11-15T07:28:52;7.00;50.90
1413;DHT22;701;52.526;13.408;2022-11-15T07:31:37;7.10;50.70
1413;DHT22;701;52.526;13.408;2022-11-15T07:34:22;7.20;50.40
1413;DHT22;701;52.526;13.408;2022-11-15T07:37:08;7.20;50.00
1413;DHT22;701;52.526;13.408;2022-11-15T07:39:52;7.30;49.80
1413;DHT22;701;52.526;13.408;2022-11-15T07:42:36;7.30;49.70
1413;DHT22;701;52.526;13.408;2022-11-15T07:45:43;7.30;49.10
1413;DHT22;701;52.526;13.408;2022-11-15T07:48:29;7.40;48.80
1413;DHT22;701;52.526;13.408;2022-11-15T07:51:14;7.40;48.80
1413;DHT22;701;52.526;13.408;2022-11-15T07:53:59;7.40;48.60
1413;DHT22;701;52.526;13.408;2022-11-15T07:56:44;7.50;48.40
1413;DHT22;701;52.526;13.408;2022-11-15T07:59:29;7.60;48.40
1413;DHT22;701;52.526;13.408;2022-11-15T08:02:13;7.60;48.80
1413;DHT22;701;52.526;13.408;2022-11-15T08:05:00;7.70;48.30
1413;DHT22;701;52.526;13.408;2022-11-15T08:07:44;7.80;48.60
1413;DHT22;701;52.526;13.408;2022-11-15T08:10:29;7.80;47.80
1413;DHT22;701;52.526;13.408;2022-11-15T08:13:13;7.90;47.80
1413;DHT22;701;52.526;13.408;2022-11-15T08:15:59;7.90;47.80
1413;DHT22;701;52.526;13.408;2022-11-15T08:18:44;8.00;47.40
1413;DHT22;701;52.526;13.408;2022-11-15T08:21:28;8.10;47.20
1413;DHT22;701;52.526;13.408;2022-11-15T08:24:13;8.10;47.00
1413;DHT22;701;52.526;13.408;2022-11-15T08:26:57;8.20;47.20
1413;DHT22;701;52.526;13.408;2022-11-15T08:29:45;8.30;45.80
1413;DHT22;701;52.526;13.408;2022-11-15T08:32:30;8.30;45.90
1413;DHT22;701;52.526;13.408;2022-11-15T08:35:15;8.40;45.80
1413;DHT22;701;52.526;13.408;2022-11-15T08:37:59;8.40;45.30
1413;DHT22;701;52.526;13.408;2022-11-15T08:40:44;8.50;45.00
1413;DHT22;701;52.526;13.408;2022-11-15T08:43:28;8.50;44.70
1413;DHT22;701;52.526;13.408;2022-11-15T08:46:13;8.60;44.30
1413;DHT22;701;52.526;13.408;2022-11-15T08:48:57;8.60;44.40
1413;DHT22;701;52.526;13.408;2022-11-15T08:51:41;8.70;44.00
1413;DHT22;701;52.526;13.408;2022-11-15T08:54:26;8.70;43.60
1413;DHT22;701;52.526;13.408;2022-11-15T08:57:10;8.80;43.50
1413;DHT22;701;52.526;13.408;2022-11-15T08:59:55;8.90;43.30
1413;DHT22;701;52.526;13.408;2022-11-15T09:02:39;9.00;43.20
1413;DHT22;701;52.526;13.408;2022-11-15T09:05:24;9.00;43.00
1413;DHT22;701;52.526;13.408;2022-11-15T09:08:09;9.10;42.70
1413;DHT22;701;52.526;13.408;2022-11-15T09:10:53;9.20;41.80
1413;DHT22;701;52.526;13.408;2022-11-15T09:13:38;9.20;41.80
1413;DHT22;701;52.526;13.408;2022-11-15T09:16:22;9.30;41.80
1413;DHT22;701;52.526;13.408;2022-11-15T09:19:07;9.40;41.50
1413;DHT22;701;52.526;13.408;2022-11-15T09:21:51;9.50;41.20
1413;DHT22;701;52.526;13.408;2022-11-15T09:24:35;9.50;40.60
1413;DHT22;701;52.526;13.408;2022-11-15T09:27:19;9.60;40.70
1413;DHT22;701;52.526;13.408;2022-11-15T09:30:04;9.70;40.70
1413;DHT22;701;52.526;13.408;2022-11-15T09:32:49;9.70;40.30
1413;DHT22;701;52.526;13.408;2022-11-15T09:35:33;9.80;40.00
1413;DHT22;701;52.526;13.408;2022-11-15T09:38:18;9.90;39.40
1413;DHT22;701;52.526;13.408;2022-11-15T09:44:42;10.10;36.70
1413;DHT22;701;52.526;13.408;2022-11-15T09:53:47;10.30;36.90
1413;DHT22;701;52.526;13.408;2022-11-15T09:56:19;10.40;36.00
1413;DHT22;701;52.526;13.408;2022-11-15T10:04:05;10.70;34.60
1413;DHT22;701;52.526;13.408;2022-11-15T10:06:35;10.70;34.90
1413;DHT22;701;52.526;13.408;2022-11-15T10:09:15;10.70;34.00
1413;DHT22;701;52.526;13.408;2022-11-15T10:11:42;10.80;34.00
1413;DHT22;701;52.526;13.408;2022-11-15T10:14:11;10.90;34.20
1413;DHT22;701;52.526;13.408;2022-11-15T10:17:09;10.90;33.60
1413;DHT22;701;52.526;13.408;2022-11-15T10:19:43;11.00;33.10
1413;DHT22;701;52.526;13.408;2022-11-15T10:24:41;11.20;33.00
1413;DHT22;701;52.526;13.408;2022-11-15T10:27:11;11.30;32.40
1413;DHT22;701;52.526;13.408;2022-11-15T10:29:43;11.40;32.40
1413;DHT22;701;52.526;13.408;2022-11-15T10:32:11;11.50;32.30
1413;DHT22;701;52.526;13.408;2022-11-15T10:34:37;11.60;31.80
1413;DHT22;701;52.526;13.408;2022-11-15T10:37:03;11.70;31.50
1413;DHT22;701;52.526;13.408;2022-11-15T10:39:29;11.70;31.00
1413;DHT22;701;52.526;13.408;2022-11-15T10:41:55;11.80;30.70
1413;DHT22;701;52.526;13.408;2022-11-15T10:44:29;11.90;30.60
1413;DHT22;701;52.526;13.408;2022-11-15T10:49:25;12.10;30.00
1413;DHT22;701;52.526;13.408;2022-11-15T10:54:28;12.20;29.50
1413;DHT22;701;52.526;13.408;2022-11-15T10:56:58;12.40;29.20
1413;DHT22;701;52.526;13.408;2022-11-15T10:59:28;12.50;28.90
1413;DHT22;701;52.526;13.408;2022-11-15T11:01:54;12.60;28.70
1413;DHT22;701;52.526;13.408;2022-11-15T11:04:21;12.70;28.10
1413;DHT22;701;52.526;13.408;2022-11-15T11:06:50;12.80;27.80
1413;DHT22;701;52.526;13.408;2022-11-15T11:09:35;12.90;27.40
1413;DHT22;701;52.526;13.408;2022-11-15T11:12:03;13.10;26.60
1413;DHT22;701;52.526;13.408;2022-11-15T11:14:34;13.20;26.20
1413;DHT22;701;52.526;13.408;2022-11-15T11:17:16;13.30;26.30
1413;DHT22;701;52.526;13.408;2022-11-15T11:20:00;13.40;26.30
1413;DHT22;701;52.526;13.408;2022-11-15T11:22:48;13.60;25.80
1413;DHT22;701;52.526;13.408;2022-11-15T11:30:51;14.00;24.90
1413;DHT22;701;52.526;13.408;2022-11-15T11:33:26;14.20;24.20
1413;DHT22;701;52.526;13.408;2022-11-15T11:44:27;14.60;22.70
1413;DHT22;701;52.526;13.408;2022-11-15T11:49:54;14.70;22.10
1413;DHT22;701;52.526;13.408;2022-11-15T12:00:26;14.60;22.00
1413;DHT22;701;52.526;13.408;2022-11-15T12:05:43;14.40;21.70
1413;DHT22;701;52.526;13.408;2022-11-15T12:08:23;14.40;22.10
1413;DHT22;701;52.526;13.408;2022-11-15T12:10:58;14.30;21.80
1413;DHT22;701;52.526;13.408;2022-11-15T12:13:27;14.30;22.40
1413;DHT22;701;52.526;13.408;2022-11-15T12:16:07;14.20;22.50
1413;DHT22;701;52.526;13.408;2022-11-15T12:18:35;14.10;22.60
1413;DHT22;701;52.526;13.408;2022-11-15T12:21:07;14.10;22.80
1413;DHT22;701;52.526;13.408;2022-11-15T12:23:44;14.10;22.80
1413;DHT22;701;52.526;13.408;2022-11-15T12:26:18;14.00;23.10
1413;DHT22;701;52.526;13.408;2022-11-15T12:29:03;14.00;23.10
1413;DHT22;701;52.526;13.408;2022-11-15T12:31:43;14.00;23.10
1413;DHT22;701;52.526;13.408;2022-11-15T12:36:51;14.00;23.10
1413;DHT22;701;52.526;13.408;2022-11-15T12:39:17;14.00;23.30
1413;DHT22;701;52.526;13.408;2022-11-15T12:59:59;14.00;23.20
1413;DHT22;701;52.526;13.408;2022-11-15T13:02:34;14.00;23.10
1413;DHT22;701;52.526;13.408;2022-11-15T13:17:50;14.00;23.10
1413;DHT22;701;52.526;13.408;2022-11-15T13:30:55;14.10;23.50
1413;DHT22;701;52.526;13.408;2022-11-15T13:35:56;14.00;23.30
1413;DHT22;701;52.526;13.408;2022-11-15T13:40:52;14.00;23.50
1413;DHT22;701;52.526;13.408;2022-11-15T13:46:10;13.90;23.60
1413;DHT22;701;52.526;13.408;2022-11-15T13:48:36;13.80;23.70
1413;DHT22;701;52.526;13.408;2022-11-15T13:51:05;13.80;23.80
1413;DHT22;701;52.526;13.408;2022-11-15T13:53:33;13.80;23.90
1413;DHT22;701;52.526;13.408;2022-11-15T13:56:00;13.80;24.00
1413;DHT22;701;52.526;13.408;2022-11-15T13:58:29;13.70;24.10
1413;DHT22;701;52.526;13.408;2022-11-15T14:01:02;13.70;24.20
1413;DHT22;701;52.526;13.408;2022-11-15T14:03:35;13.70;24.20
1413;DHT22;701;52.526;13.408;2022-11-15T14:06:13;13.70;24.30
1413;DHT22;701;52.526;13.408;2022-11-15T14:09:02;13.60;24.40
1413;DHT22;701;52.526;13.408;2022-11-15T14:11:28;13.60;24.40
1413;DHT22;701;52.526;13.408;2022-11-15T14:16:33;13.50;24.70
1413;DHT22;701;52.526;13.408;2022-11-15T14:19:00;13.50;24.80
1413;DHT22;701;52.526;13.408;2022-11-15T14:21:26;13.40;24.90
1413;DHT22;701;52.526;13.408;2022-11-15T14:23:51;13.40;25.00
1413;DHT22;701;52.526;13.408;2022-11-15T14:26:29;13.40;25.20
1413;DHT22;701;52.526;13.408;2022-11-15T14:28:55;13.30;25.40
1413;DHT22;701;52.526;13.408;2022-11-15T14:31:21;13.30;25.60
1413;DHT22;701;52.526;13.408;2022-11-15T14:33:47;13.30;25.80
1413;DHT22;701;52.526;13.408;2022-11-15T14:36:16;13.20;26.10
1413;DHT22;701;52.526;13.408;2022-11-15T14:38:42;13.20;26.20
1413;DHT22;701;52.526;13.408;2022-11-15T14:41:23;13.20;26.20
1413;DHT22;701;52.526;13.408;2022-11-15T14:43:50;13.10;26.20
1413;DHT22;701;52.526;13.408;2022-11-15T14:46:16;13.00;26.00
1413;DHT22;701;52.526;13.408;2022-11-15T14:48:41;13.00;26.10
1413;DHT22;701;52.526;13.408;2022-11-15T14:51:15;13.00;26.90
1413;DHT22;701;52.526;13.408;2022-11-15T14:53:42;12.90;26.60
1413;DHT22;701;52.526;13.408;2022-11-15T14:56:08;12.90;27.00
1413;DHT22;701;52.526;13.408;2022-11-15T14:58:34;12.80;27.20
1413;DHT22;701;52.526;13.408;2022-11-15T15:00:59;12.80;27.40
1413;DHT22;701;52.526;13.408;2022-11-15T15:03:27;12.70;27.60
1413;DHT22;701;52.526;13.408;2022-11-15T15:05:52;12.70;27.90
1413;DHT22;701;52.526;13.408;2022-11-15T15:08:18;12.70;28.00
1413;DHT22;701;52.526;13.408;2022-11-15T15:10:45;12.60;28.10
1413;DHT22;701;52.526;13.408;2022-11-15T15:15:42;12.50;28.60
1413;DHT22;701;52.526;13.408;2022-11-15T15:18:08;12.40;28.90
1413;DHT22;701;52.526;13.408;2022-11-15T15:20:41;12.40;29.20
1413;DHT22;701;52.526;13.408;2022-11-15T15:23:18;12.40;29.20
1413;DHT22;701;52.526;13.408;2022-11-15T15:25:44;12.30;29.50
1413;DHT22;701;52.526;13.408;2022-11-15T15:28:11;12.30;29.60
1413;DHT22;701;52.526;13.408;2022-11-15T15:30:37;12.20;30.00
1413;DHT22;701;52.526;13.408;2022-11-15T15:33:03;12.20;30.30
1413;DHT22;701;52.526;13.408;2022-11-15T15:35:33;12.10;30.60
1413;DHT22;701;52.526;13.408;2022-11-15T15:37:59;12.10;30.90
1413;DHT22;701;52.526;13.408;2022-11-15T15:40:28;12.00;30.70
1413;DHT22;701;52.526;13.408;2022-11-15T15:42:55;12.00;31.10
1413;DHT22;701;52.526;13.408;2022-11-15T15:45:20;12.00;31.20
1413;DHT22;701;52.526;13.408;2022-11-15T15:47:46;11.90;31.60
1413;DHT22;701;52.526;13.408;2022-11-15T15:52:43;11.80;32.20
1413;DHT22;701;52.526;13.408;2022-11-15T15:55:09;11.70;32.60
1413;DHT22;701;52.526;13.408;2022-11-15T15:57:36;11.60;32.60
1413;DHT22;701;52.526;13.408;2022-11-15T16:00:03;11.60;32.60
1413;DHT22;701;52.526;13.408;2022-11-15T16:02:38;11.60;33.60
1413;DHT22;701;52.526;13.408;2022-11-15T16:05:04;11.50;33.60
1413;DHT22;701;52.526;13.408;2022-11-15T16:07:30;11.50;34.20
1413;DHT22;701;52.526;13.408;2022-11-15T16:09:55;11.50;34.60
1413;DHT22;701;52.526;13.408;2022-11-15T16:12:32;11.40;34.90
1413;DHT22;701;52.526;13.408;2022-11-15T16:14:58;11.40;35.50
1413;DHT22;701;52.526;13.408;2022-11-15T16:17:32;11.40;35.70
1413;DHT22;701;52.526;13.408;2022-11-15T16:19:59;11.40;36.60
1413;DHT22;701;52.526;13.408;2022-11-15T16:22:24;11.30;36.70
1413;DHT22;701;52.526;13.408;2022-11-15T16:24:50;11.30;36.80
1413;DHT22;701;52.526;13.408;2022-11-15T16:27:18;11.30;36.80
1413;DHT22;701;52.526;13.408;2022-11-15T16:29:45;11.30;37.40
1413;DHT22;701;52.526;13.408;2022-11-15T16:32:11;11.20;37.50
1413;DHT22;701;52.526;13.408;2022-11-15T16:34:37;11.20;37.60
1413;DHT22;701;52.526;13.408;2022-11-15T16:37:03;11.20;38.40
1413;DHT22;701;52.526;13.408;2022-11-15T16:39:29;11.10;39.30
1413;DHT22;701;52.526;13.408;2022-11-15T16:41:57;11.10;39.20
1413;DHT22;701;52.526;13.408;2022-11-15T16:44:22;11.10;39.30
1413;DHT22;701;52.526;13.408;2022-11-15T16:46:50;11.00;39.30
1413;DHT22;701;52.526;13.408;2022-11-15T16:49:19;11.00;39.20
1413;DHT22;701;52.526;13.408;2022-11-15T16:51:49;10.90;39.50
1413;DHT22;701;52.526;13.408;2022-11-15T16:54:15;10.90;39.90
1413;DHT22;701;52.526;13.408;2022-11-15T16:56:41;10.80;40.70
1413;DHT22;701;52.526;13.408;2022-11-15T16:59:14;10.70;40.60
1413;DHT22;701;52.526;13.408;2022-11-15T17:01:41;10.70;41.20
1413;DHT22;701;52.526;13.408;2022-11-15T17:04:17;10.60;41.40
1413;DHT22;701;52.526;13.408;2022-11-15T17:06:45;10.50;41.80
1413;DHT22;701;52.526;13.408;2022-11-15T17:09:19;10.50;42.30
1413;DHT22;701;52.526;13.408;2022-11-15T17:11:45;10.40;42.60
1413;DHT22;701;52.526;13.408;2022-11-15T17:14:11;10.30;42.80
1413;DHT22;701;52.526;13.408;2022-11-15T17:16:38;10.30;43.00
1413;DHT22;701;52.526;13.408;2022-11-15T17:19:12;10.20;43.60
1413;DHT22;701;52.526;13.408;2022-11-15T17:21:38;10.20;44.00
1413;DHT22;701;52.526;13.408;2022-11-15T17:24:04;10.10;44.20
1413;DHT22;701;52.526;13.408;2022-11-15T17:26:30;10.10;44.40
1413;DHT22;701;52.526;13.408;2022-11-15T17:28:56;10.00;44.80
1413;DHT22;701;52.526;13.408;2022-11-15T17:31:21;10.00;45.20
1413;DHT22;701;52.526;13.408;2022-11-15T17:33:47;9.90;46.50
1413;DHT22;701;52.526;13.408;2022-11-15T17:36:13;9.90;46.20
1413;DHT22;701;52.526;13.408;2022-11-15T17:38:41;9.80;46.50
1413;DHT22;701;52.526;13.408;2022-11-15T17:41:14;9.80;46.20
1413;DHT22;701;52.526;13.408;2022-11-15T17:43:41;9.80;46.50
1413;DHT22;701;52.526;13.408;2022-11-15T17:46:10;9.70;46.50
1413;DHT22;701;52.526;13.408;2022-11-15T17:48:36;9.70;46.70
1413;DHT22;701;52.526;13.408;2022-11-15T17:51:04;9.60;47.20
1413;DHT22;701;52.526;13.408;2022-11-15T17:53:35;9.60;47.50
1413;DHT22;701;52.526;13.408;2022-11-15T17:56:06;9.60;47.60
1413;DHT22;701;52.526;13.408;2022-11-15T17:58:33;9.50;48.10
1413;DHT22;701;52.526;13.408;2022-11-15T18:03:37;9.40;48.30
1413;DHT22;701;52.526;13.408;2022-11-15T18:06:07;9.40;48.70
1413;DHT22;701;52.526;13.408;2022-11-15T18:08:38;9.30;48.60
1413;DHT22;701;52.526;13.408;2022-11-15T18:11:10;9.30;49.40
1413;DHT22;701;52.526;13.408;2022-11-15T18:13:37;9.20;48.70
1413;DHT22;701;52.526;13.408;2022-11-15T18:16:05;9.20;48.90
1413;DHT22;701;52.526;13.408;2022-11-15T18:18:33;9.10;48.80
1413;DHT22;701;52.526;13.408;2022-11-15T18:23:25;9.00;48.70
1413;DHT22;701;52.526;13.408;2022-11-15T18:25:51;9.00;48.80
1413;DHT22;701;52.526;13.408;2022-11-15T18:28:17;8.90;48.90
1413;DHT22;701;52.526;13.408;2022-11-15T18:30:42;8.90;49.00
1413;DHT22;701;52.526;13.408;2022-11-15T18:33:08;8.90;49.40
1413;DHT22;701;52.526;13.408;2022-11-15T18:35:34;8.80;49.40
1413;DHT22;701;52.526;13.408;2022-11-15T18:37:59;8.70;49.60
1413;DHT22;701;52.526;13.408;2022-11-15T18:40:25;8.70;49.80
1413;DHT22;701;52.526;13.408;2022-11-15T18:42:52;8.70;50.00
1413;DHT22;701;52.526;13.408;2022-11-15T18:45:19;8.70;50.10
1413;DHT22;701;52.526;13.408;2022-11-15T18:47:45;8.60;50.10
1413;DHT22;701;52.526;13.408;2022-11-15T18:50:11;8.60;50.30
1413;DHT22;701;52.526;13.408;2022-11-15T18:52:36;8.50;50.60
1413;DHT22;701;52.526;13.408;2022-11-15T18:55:02;8.50;50.50
1413;DHT22;701;52.526;13.408;2022-11-15T18:57:28;8.40;51.00
1413;DHT22;701;52.526;13.408;2022-11-15T18:59:54;8.40;51.10
1413;DHT22;701;52.526;13.408;2022-11-15T19:02:20;8.30;51.20
1413;DHT22;701;52.526;13.408;2022-11-15T19:04:46;8.30;51.30
1413;DHT22;701;52.526;13.408;2022-11-15T19:07:12;8.20;51.30
1413;DHT22;701;52.526;13.408;2022-11-15T19:09:37;8.20;51.80
1413;DHT22;701;52.526;13.408;2022-11-15T19:12:03;8.10;51.80
1413;DHT22;701;52.526;13.408;2022-11-15T19:14:29;8.10;52.20
1413;DHT22;701;52.526;13.408;2022-11-15T19:16:55;8.00;52.40
1413;DHT22;701;52.526;13.408;2022-11-15T19:19:25;8.00;52.80
1413;DHT22;701;52.526;13.408;2022-11-15T19:21:53;8.00;53.50
1413;DHT22;701;52.526;13.408;2022-11-15T19:24:19;7.90;54.00
1413;DHT22;701;52.526;13.408;2022-11-15T19:26:45;7.90;54.70
1413;DHT22;701;52.526;13.408;2022-11-15T19:29:11;7.80;55.00
1413;DHT22;701;52.526;13.408;2022-11-15T19:31:40;7.90;55.60
1413;DHT22;701;52.526;13.408;2022-11-15T19:34:06;7.80;56.70
1413;DHT22;701;52.526;13.408;2022-11-15T19:36:35;7.80;56.10
1413;DHT22;701;52.526;13.408;2022-11-15T19:39:04;7.80;56.10
1413;DHT22;701;52.526;13.408;2022-11-15T19:41:33;7.80;56.10
1413;DHT22;701;52.526;13.408;2022-11-15T19:43:59;7.80;56.10
1413;DHT22;701;52.526;13.408;2022-11-15T19:46:25;7.90;56.20
1413;DHT22;701;52.526;13.408;2022-11-15T19:48:51;7.90;56.10
1413;DHT22;701;52.526;13.408;2022-11-15T19:51:25;7.90;56.10
1413;DHT22;701;52.526;13.408;2022-11-15T19:53:54;8.00;56.20
1413;DHT22;701;52.526;13.408;2022-11-15T19:56:21;8.00;56.20